Weather at RAAF Williams, Point Cook Base

Public forecast

Using degrees Celsius for public forecast. Weather courtesy of forecast.io.

Closest aviation weather report (METAR) to RAAF Williams, Point Cook Base

Closest report is Avalon Airport, 14.9 nm (27.6 km) WSW.

2024/05/30 12:00 (retrieved 29 minutes ago)

YMAV 301200Z AUTO 33009KT 9999 // BKN032 16/12 Q1007 RF000/0032

Closest aviation forecast (TAF) to RAAF Williams, Point Cook Base

Closest forecast is Avalon Airport, 14.9 nm (27.6 km) WSW.

2024/05/30 12:15 Ammendment (retrieved 14 minutes ago)

TAF AMD YMAV 301111Z 3012/3112 32014KT 9999 SCT030 FM310000 30020G30KT 9999 SCT040 BECMG 3105/3107 29012KT 9999 FEW040